createdAt,value
2018-04-22T00:01:46.701Z,5.60
2018-04-22T00:04:15.347Z,5.73
2018-04-22T00:06:43.668Z,5.40
2018-04-22T00:09:12.124Z,5.47
2018-04-22T00:11:40.486Z,5.80
2018-04-22T00:14:08.824Z,5.07
2018-04-22T00:16:37.859Z,5.03
2018-04-22T00:19:06.215Z,4.90
2018-04-22T00:21:35.238Z,5.00
2018-04-22T00:24:03.510Z,5.83
2018-04-22T00:26:31.950Z,4.93
2018-04-22T00:29:00.972Z,5.17
2018-04-22T00:31:29.390Z,5.07
2018-04-22T00:33:57.666Z,4.87
2018-04-22T00:36:26.126Z,4.73
2018-04-22T00:38:54.517Z,4.93
2018-04-22T00:41:22.857Z,5.23
2018-04-22T00:43:52.194Z,4.47
2018-04-22T00:46:20.523Z,4.97
2018-04-22T00:48:48.951Z,4.70
2018-04-22T00:51:17.230Z,5.17
2018-04-22T00:53:57.355Z,4.70
2018-04-22T00:56:25.759Z,4.80
2018-04-22T00:58:54.178Z,4.60
2018-04-22T01:01:22.444Z,4.90
2018-04-22T01:03:51.602Z,4.67
2018-04-22T01:06:19.875Z,4.80
2018-04-22T01:08:48.208Z,5.10
2018-04-22T01:11:16.462Z,4.97
2018-04-22T01:13:44.980Z,5.20
2018-04-22T01:16:14.011Z,4.77
2018-04-22T01:18:42.340Z,4.80
2018-04-22T01:21:10.753Z,4.50
2018-04-22T01:23:39.014Z,4.47
2018-04-22T01:26:07.515Z,4.53
2018-04-22T01:28:35.933Z,4.73
2018-04-22T01:31:04.190Z,4.63
2018-04-22T01:33:32.628Z,4.10
2018-04-22T01:36:01.091Z,5.13
2018-04-22T01:38:29.445Z,4.47
2018-04-22T01:40:57.840Z,4.67
2018-04-22T01:43:26.143Z,4.50
2018-04-22T01:45:54.714Z,4.00
2018-04-22T01:48:22.979Z,4.50
2018-04-22T01:50:51.645Z,4.90
2018-04-22T01:53:19.984Z,4.47
2018-04-22T01:55:48.410Z,4.73
2018-04-22T01:58:16.686Z,4.67
2018-04-22T02:00:45.093Z,4.20
2018-04-22T02:03:13.779Z,4.87
2018-04-22T02:05:42.239Z,4.90
2018-04-22T02:08:10.634Z,4.30
2018-04-22T02:10:38.925Z,4.30
2018-04-22T02:13:07.966Z,4.43
2018-04-22T02:15:36.337Z,4.37
2018-04-22T02:18:04.754Z,4.57
2018-04-22T02:20:33.036Z,4.20
2018-04-22T02:23:01.297Z,4.23
2018-04-22T02:25:29.567Z,3.90
2018-04-22T02:27:57.909Z,4.67
2018-04-22T02:30:26.186Z,4.17
2018-04-22T02:32:54.474Z,4.00
2018-04-22T02:35:22.733Z,3.93
2018-04-22T02:37:51.035Z,4.80
2018-04-22T02:40:19.513Z,4.13
2018-04-22T02:42:47.870Z,4.13
2018-04-22T02:45:17.219Z,4.20
2018-04-22T02:47:45.493Z,4.30
2018-04-22T02:50:13.958Z,3.97
2018-04-22T02:52:42.303Z,4.27
2018-04-22T02:55:10.605Z,4.17
2018-04-22T02:57:38.882Z,4.67
2018-04-22T03:00:07.391Z,4.13
2018-04-22T03:02:35.787Z,4.13
2018-04-22T03:05:04.050Z,4.30
2018-04-22T03:07:32.322Z,3.93
2018-04-22T03:10:00.720Z,4.10
2018-04-22T03:12:29.001Z,4.53
2018-04-22T03:14:57.260Z,4.20
2018-04-22T03:17:25.532Z,4.23
2018-04-22T03:19:53.819Z,4.30
2018-04-22T03:22:22.091Z,3.73
2018-04-22T03:24:50.351Z,4.33
2018-04-22T03:27:18.689Z,4.30
2018-04-22T03:29:47.753Z,3.80
2018-04-22T03:32:16.101Z,4.43
2018-04-22T03:34:44.476Z,4.20
2018-04-22T03:37:12.741Z,3.80
2018-04-22T03:39:41.174Z,3.70
2018-04-22T03:42:09.626Z,4.20
2018-04-22T03:44:37.953Z,4.10
2018-04-22T03:47:06.979Z,4.00
2018-04-22T03:49:35.504Z,4.00
2018-04-22T03:52:03.765Z,3.90
2018-04-22T03:54:32.033Z,4.00
2018-04-22T03:57:00.306Z,3.70
2018-04-22T03:59:28.582Z,3.50
2018-04-22T04:01:56.881Z,4.00
2018-04-22T04:04:25.382Z,4.50
2018-04-22T04:06:53.661Z,3.90
2018-04-22T04:09:21.936Z,3.80
2018-04-22T04:11:50.206Z,4.00
2018-04-22T04:14:18.465Z,3.97
2018-04-22T04:16:46.861Z,3.80
2018-04-22T04:19:26.967Z,3.73
2018-04-22T04:22:07.137Z,3.80
2018-04-22T04:24:47.408Z,4.23
2018-04-22T04:27:37.209Z,3.90
2018-04-22T04:30:05.644Z,4.00
2018-04-22T04:32:33.925Z,3.90
2018-04-22T04:35:02.363Z,3.50
2018-04-22T04:37:31.419Z,3.70
2018-04-22T04:39:59.674Z,4.20
2018-04-22T04:42:28.465Z,3.80
2018-04-22T04:44:57.055Z,3.70
2018-04-22T04:47:25.313Z,4.00
2018-04-22T04:49:53.583Z,4.33
2018-04-22T04:52:22.008Z,3.70
2018-04-22T04:54:50.275Z,3.80
2018-04-22T04:57:18.529Z,3.70
2018-04-22T04:59:46.805Z,3.73
2018-04-22T05:02:15.073Z,3.63
2018-04-22T05:04:43.348Z,3.73
2018-04-22T05:07:12.082Z,3.73
2018-04-22T05:09:40.638Z,3.83
2018-04-22T05:12:09.029Z,3.67
2018-04-22T05:14:37.345Z,3.63
2018-04-22T05:17:05.777Z,3.57
2018-04-22T05:19:34.774Z,3.60
2018-04-22T05:22:03.173Z,3.50
2018-04-22T05:24:31.437Z,3.60
2018-04-22T05:26:59.931Z,3.57
2018-04-22T05:29:28.283Z,3.60
2018-04-22T05:31:56.973Z,3.60
2018-04-22T05:34:25.513Z,3.70
2018-04-22T05:36:53.996Z,3.30
2018-04-22T05:39:22.297Z,3.60
2018-04-22T05:41:50.872Z,3.50
2018-04-22T05:44:19.216Z,3.70
2018-04-22T05:46:47.491Z,3.30
2018-04-22T05:49:15.875Z,3.80
2018-04-22T05:51:44.321Z,3.77
2018-04-22T05:54:13.336Z,3.93
2018-04-22T05:56:41.697Z,3.53
2018-04-22T05:59:11.434Z,3.37
2018-04-22T06:01:41.089Z,3.47
2018-04-22T06:04:09.365Z,5.77
2018-04-22T06:06:37.658Z,7.03
2018-04-22T06:09:05.980Z,11.07
2018-04-22T06:11:34.246Z,17.73
2018-04-22T06:14:02.737Z,30.00
2018-04-22T06:16:31.470Z,37.03
2018-04-22T06:18:59.900Z,44.67
2018-04-22T06:21:28.828Z,55.67
2018-04-22T06:23:57.329Z,52.70
2018-04-22T06:26:25.635Z,50.83
2018-04-22T06:28:53.929Z,48.10
2018-04-22T06:31:22.339Z,47.57
2018-04-22T06:33:50.609Z,44.33
2018-04-22T06:36:18.889Z,43.73
2018-04-22T06:38:47.227Z,43.17
2018-04-22T06:41:15.544Z,39.20
2018-04-22T06:43:44.581Z,37.93
2018-04-22T06:46:12.898Z,37.67
2018-04-22T06:48:41.375Z,36.93
2018-04-22T06:51:09.672Z,35.13
2018-04-22T06:53:39.041Z,39.57
2018-04-22T06:56:08.083Z,36.07
2018-04-22T06:58:36.367Z,35.03
2018-04-22T07:01:04.678Z,32.57
2018-04-22T07:03:33.144Z,31.23
2018-04-22T07:06:01.447Z,31.87
2018-04-22T07:08:29.860Z,31.67
2018-04-22T07:10:58.309Z,29.50
2018-04-22T07:13:27.512Z,29.73
2018-04-22T07:15:55.962Z,27.23
2018-04-22T07:18:24.336Z,28.67
2018-04-22T07:20:52.757Z,25.40
2018-04-22T07:23:21.127Z,24.73
2018-04-22T07:25:49.450Z,23.60
2018-04-22T07:28:17.880Z,24.27
2018-04-22T07:30:46.213Z,24.47
2018-04-22T07:33:14.642Z,23.63
2018-04-22T07:35:43.014Z,23.07
2018-04-22T07:38:11.415Z,22.97
2018-04-22T07:40:39.735Z,21.63
2018-04-22T07:43:07.967Z,23.27
2018-04-22T07:45:36.264Z,21.70
2018-04-22T07:48:04.598Z,21.37
2018-04-22T07:50:32.912Z,20.77
2018-04-22T07:53:01.950Z,19.67
2018-04-22T07:55:30.258Z,18.97
2018-04-22T07:57:58.746Z,18.73
2018-04-22T08:00:27.097Z,18.10
2018-04-22T08:02:55.483Z,18.53
2018-04-22T08:05:23.750Z,20.00
2018-04-22T08:07:52.027Z,17.13
2018-04-22T08:10:20.343Z,17.70
2018-04-22T08:12:51.157Z,16.70
2018-04-22T08:15:21.276Z,16.60
2018-04-22T08:17:51.558Z,15.87
2018-04-22T08:20:24.291Z,15.70
2018-04-22T08:22:53.554Z,15.07
2018-04-22T08:25:21.991Z,14.67
2018-04-22T08:27:50.333Z,14.80
2018-04-22T08:30:18.741Z,14.77
2018-04-22T08:32:47.787Z,14.63
2018-04-22T08:35:16.330Z,14.40
2018-04-22T08:37:44.717Z,14.97
2018-04-22T08:40:13.790Z,13.20
2018-04-22T08:42:42.051Z,13.50
2018-04-22T08:45:10.377Z,14.33
2018-04-22T08:47:39.240Z,13.70
2018-04-22T08:50:08.477Z,12.80
2018-04-22T08:52:37.578Z,13.97
2018-04-22T08:55:06.272Z,11.53
2018-04-22T08:57:34.695Z,11.77
2018-04-22T09:00:02.945Z,11.40
2018-04-22T09:02:31.229Z,11.67
2018-04-22T09:04:59.661Z,11.20
2018-04-22T09:07:29.894Z,11.83
2018-04-22T09:09:58.314Z,10.70
2018-04-22T09:12:26.807Z,10.77
2018-04-22T09:14:55.265Z,10.43
2018-04-22T09:17:23.737Z,10.20
2018-04-22T09:19:52.011Z,9.60
2018-04-22T09:22:20.298Z,10.00
2018-04-22T09:24:48.598Z,9.90
2018-04-22T09:27:17.195Z,9.77
2018-04-22T09:29:45.474Z,9.03
2018-04-22T09:32:13.759Z,9.40
2018-04-22T09:34:42.086Z,9.50
2018-04-22T09:37:10.396Z,9.23
2018-04-22T09:39:38.847Z,8.63
2018-04-22T09:42:07.129Z,7.93
2018-04-22T09:44:35.395Z,8.17
2018-04-22T09:47:03.681Z,7.90
2018-04-22T09:49:31.989Z,8.23
2018-04-22T09:52:00.440Z,9.03
2018-04-22T09:54:28.828Z,8.43
2018-04-22T09:56:57.130Z,7.90
2018-04-22T09:59:25.761Z,8.20
2018-04-22T10:01:54.008Z,8.60
2018-04-22T10:04:27.944Z,8.40
2018-04-22T10:06:56.544Z,8.60
2018-04-22T10:09:24.930Z,8.37
2018-04-22T10:11:53.219Z,8.10
2018-04-22T10:14:21.683Z,8.70
2018-04-22T10:16:50.080Z,8.10
2018-04-22T10:19:18.572Z,8.27
2018-04-22T10:21:47.452Z,8.47
2018-04-22T10:24:15.785Z,8.67
2018-04-22T10:26:44.057Z,8.87
2018-04-22T10:29:12.567Z,8.13
2018-04-22T10:31:40.898Z,8.27
2018-04-22T10:34:09.601Z,8.50
2018-04-22T10:36:38.629Z,8.13
2018-04-22T10:39:06.903Z,8.70
2018-04-22T10:41:35.190Z,7.93
2018-04-22T10:44:03.505Z,8.33
2018-04-22T10:46:31.833Z,7.90
2018-04-22T10:49:00.094Z,7.70
2018-04-22T10:51:28.427Z,7.77
2018-04-22T10:53:56.760Z,7.37
2018-04-22T10:56:25.296Z,8.00
2018-04-22T10:58:53.572Z,7.77
2018-04-22T11:01:21.830Z,7.43
2018-04-22T11:03:50.166Z,7.07
2018-04-22T11:06:18.573Z,7.40
2018-04-22T11:08:46.881Z,7.23
2018-04-22T11:11:15.150Z,6.07
2018-04-22T11:13:43.530Z,6.17
2018-04-22T11:16:11.801Z,7.10
2018-04-22T11:18:40.119Z,6.80
2018-04-22T11:21:08.579Z,6.67
2018-04-22T11:23:37.211Z,6.37
2018-04-22T11:26:05.654Z,6.10
2018-04-22T11:28:33.932Z,6.40
2018-04-22T11:31:02.207Z,6.67
2018-04-22T11:33:30.678Z,5.93
2018-04-22T11:35:59.227Z,6.30
2018-04-22T11:38:28.024Z,6.03
2018-04-22T11:40:56.645Z,6.83
2018-04-22T11:43:25.309Z,7.17
2018-04-22T11:45:53.866Z,6.80
2018-04-22T11:48:22.152Z,7.00
2018-04-22T11:50:50.514Z,6.60
2018-04-22T11:53:19.014Z,6.47
2018-04-22T11:55:47.288Z,6.80
2018-04-22T11:58:15.550Z,6.33
2018-04-22T12:00:43.824Z,6.80
2018-04-22T12:03:12.224Z,6.57
2018-04-22T12:05:40.486Z,6.27
2018-04-22T12:08:08.862Z,6.40
2018-04-22T12:10:37.962Z,6.37
2018-04-22T12:13:06.337Z,6.07
2018-04-22T12:15:37.496Z,6.07
2018-04-22T12:18:05.853Z,6.03
2018-04-22T12:20:34.260Z,6.00
2018-04-22T12:23:02.579Z,5.90
2018-04-22T12:25:31.606Z,6.47
2018-04-22T12:27:59.931Z,6.07
2018-04-22T12:30:28.347Z,5.93
2018-04-22T12:32:56.612Z,5.90
2018-04-22T12:35:25.265Z,5.80
2018-04-22T12:37:53.575Z,6.13
2018-04-22T12:40:21.820Z,5.77
2018-04-22T12:42:50.221Z,5.93
2018-04-22T12:45:19.298Z,5.90
2018-04-22T12:47:48.436Z,6.50
2018-04-22T12:50:16.656Z,6.40
2018-04-22T12:52:44.916Z,6.20
2018-04-22T12:55:13.331Z,6.30
2018-04-22T12:57:41.771Z,6.27
2018-04-22T13:00:10.592Z,6.23
2018-04-22T13:02:38.920Z,5.93
2018-04-22T13:05:07.157Z,6.00
2018-04-22T13:07:35.631Z,5.47
2018-04-22T13:10:03.909Z,5.30
2018-04-22T13:12:32.202Z,5.23
2018-04-22T13:15:00.494Z,5.30
2018-04-22T13:17:28.805Z,5.47
2018-04-22T13:19:58.116Z,5.00
2018-04-22T13:22:26.374Z,5.40
2018-04-22T13:24:54.646Z,5.60
2018-04-22T13:27:22.955Z,6.23
2018-04-22T13:29:51.220Z,5.63
2018-04-22T13:32:19.718Z,5.70
2018-04-22T13:34:47.977Z,5.63
2018-04-22T13:37:16.517Z,5.53
2018-04-22T13:39:44.963Z,4.90
2018-04-22T13:42:13.330Z,5.03
2018-04-22T13:44:41.891Z,4.83
2018-04-22T13:47:10.210Z,5.40
2018-04-22T13:49:38.671Z,5.10
2018-04-22T13:52:07.167Z,5.20
2018-04-22T13:54:35.442Z,5.07
2018-04-22T13:57:03.740Z,4.07
2018-04-22T13:59:32.179Z,4.30
2018-04-22T14:02:00.494Z,4.40
2018-04-22T14:04:28.740Z,4.10
2018-04-22T14:06:56.994Z,4.10
2018-04-22T14:09:25.258Z,4.33
2018-04-22T14:11:53.535Z,3.90
2018-04-22T14:14:21.826Z,4.20
2018-04-22T14:16:50.239Z,3.87
2018-04-22T14:19:19.446Z,3.80
2018-04-22T14:21:47.740Z,3.90
2018-04-22T14:24:15.990Z,4.50
2018-04-22T14:26:44.473Z,3.97
2018-04-22T14:29:12.727Z,4.10
2018-04-22T14:31:41.398Z,4.57
2018-04-22T14:34:09.657Z,3.87
2018-04-22T14:36:38.030Z,3.97
2018-04-22T14:39:06.314Z,4.20
2018-04-22T14:41:34.577Z,4.10
2018-04-22T14:44:14.669Z,3.80
2018-04-22T14:46:42.943Z,4.40
2018-04-22T14:49:11.460Z,4.27
2018-04-22T14:51:39.806Z,4.70
2018-04-22T14:54:08.070Z,3.93
2018-04-22T14:56:36.341Z,4.43
2018-04-22T14:59:04.601Z,3.93
2018-04-22T15:01:32.949Z,3.53
2018-04-22T15:04:01.351Z,4.00
2018-04-22T15:06:30.379Z,3.83
2018-04-22T15:08:58.781Z,3.80
2018-04-22T15:11:27.280Z,3.80
2018-04-22T15:13:55.542Z,3.90
2018-04-22T15:16:23.841Z,4.13
2018-04-22T15:18:52.286Z,4.30
2018-04-22T15:21:20.940Z,4.13
2018-04-22T15:23:49.374Z,4.23
2018-04-22T15:26:17.673Z,3.80
2018-04-22T15:28:46.089Z,4.00
2018-04-22T15:31:14.475Z,4.07
2018-04-22T15:33:42.821Z,4.13
2018-04-22T15:36:11.383Z,3.90
2018-04-22T15:38:39.657Z,3.87
2018-04-22T15:41:08.103Z,4.20
2018-04-22T15:43:36.633Z,3.93
2018-04-22T15:46:04.894Z,3.63
2018-04-22T15:48:33.203Z,3.80
2018-04-22T15:51:02.441Z,4.23
2018-04-22T15:53:30.763Z,10.37
2018-04-22T15:55:59.453Z,5.70
2018-04-22T15:58:27.886Z,5.13
2018-04-22T16:00:56.313Z,4.97
2018-04-22T16:03:24.642Z,4.70
2018-04-22T16:05:53.049Z,4.50
2018-04-22T16:08:21.365Z,4.23
2018-04-22T16:10:50.088Z,4.50
2018-04-22T16:13:18.483Z,4.37
2018-04-22T16:15:46.837Z,4.40
2018-04-22T16:18:15.102Z,4.77
2018-04-22T16:20:43.367Z,4.27
2018-04-22T16:23:11.646Z,4.17
2018-04-22T16:25:40.055Z,3.73
2018-04-22T16:28:08.671Z,4.10
2018-04-22T16:30:37.442Z,4.07
2018-04-22T16:33:06.037Z,3.80
2018-04-22T16:35:34.446Z,4.23
2018-04-22T16:38:02.722Z,4.27
2018-04-22T16:40:31.242Z,4.23
2018-04-22T16:42:59.535Z,4.17
2018-04-22T16:45:28.613Z,3.90
2018-04-22T16:47:56.947Z,4.00
2018-04-22T16:50:25.596Z,4.30
2018-04-22T16:52:54.020Z,3.80
2018-04-22T16:55:22.430Z,4.00
2018-04-22T16:57:51.467Z,4.10
2018-04-22T17:00:19.783Z,4.10
2018-04-22T17:02:48.195Z,4.40
2018-04-22T17:05:16.616Z,4.13
2018-04-22T17:07:44.877Z,3.80
2018-04-22T17:10:13.352Z,3.90
2018-04-22T17:12:41.614Z,3.97
2018-04-22T17:15:09.910Z,4.40
2018-04-22T17:17:38.185Z,4.13
2018-04-22T17:20:06.481Z,3.47
2018-04-22T17:22:34.758Z,3.70
2018-04-22T17:25:03.252Z,4.27
2018-04-22T17:27:32.302Z,4.07
2018-04-22T17:30:00.651Z,3.77
2018-04-22T17:32:29.092Z,3.57
2018-04-22T17:34:57.468Z,3.97
2018-04-22T17:37:26.508Z,4.03
2018-04-22T17:39:54.762Z,4.00
2018-04-22T17:42:23.787Z,4.07
2018-04-22T17:44:52.496Z,4.30
2018-04-22T17:47:20.906Z,4.23
2018-04-22T17:49:50.102Z,3.97
2018-04-22T17:52:18.374Z,4.33
2018-04-22T17:54:46.620Z,4.10
2018-04-22T17:57:15.019Z,4.33
2018-04-22T17:59:43.304Z,5.20
2018-04-22T18:02:11.787Z,4.80
2018-04-22T18:04:40.081Z,4.50
2018-04-22T18:07:08.605Z,5.40
2018-04-22T18:09:37.198Z,4.93
2018-04-22T18:12:05.590Z,4.90
2018-04-22T18:14:33.866Z,4.97
2018-04-22T18:17:02.137Z,5.17
2018-04-22T18:19:30.406Z,4.63
2018-04-22T18:21:58.731Z,4.87
2018-04-22T18:24:27.766Z,4.43
2018-04-22T18:26:56.035Z,4.10
2018-04-22T18:29:24.306Z,4.20
2018-04-22T18:31:52.612Z,4.33
2018-04-22T18:34:21.013Z,4.23
2018-04-22T18:36:49.369Z,4.30
2018-04-22T18:39:17.761Z,4.27
2018-04-22T18:41:46.155Z,4.50
2018-04-22T18:44:14.443Z,4.40
2018-04-22T18:46:42.735Z,4.03
2018-04-22T18:49:10.986Z,3.87
2018-04-22T18:51:40.208Z,4.13
2018-04-22T18:54:08.684Z,3.97
2018-04-22T18:56:37.943Z,3.97
2018-04-22T18:59:06.347Z,3.63
2018-04-22T19:01:34.605Z,4.20
2018-04-22T19:04:03.085Z,4.10
2018-04-22T19:06:31.403Z,3.83
2018-04-22T19:08:59.826Z,3.87
2018-04-22T19:11:28.213Z,3.90
2018-04-22T19:13:56.506Z,4.20
2018-04-22T19:16:24.805Z,4.20
2018-04-22T19:18:53.350Z,4.20
2018-04-22T19:21:21.668Z,4.53
2018-04-22T19:23:50.136Z,3.60
2018-04-22T19:26:18.491Z,4.27
2018-04-22T19:28:46.913Z,4.43
2018-04-22T19:31:15.187Z,109.30
2018-04-22T19:33:44.239Z,111.07
2018-04-22T19:36:12.601Z,89.97
2018-04-22T19:38:41.276Z,75.37
2018-04-22T19:41:09.719Z,58.77
2018-04-22T19:43:38.016Z,40.33
2018-04-22T19:46:07.060Z,28.03
2018-04-22T19:48:35.383Z,24.17
2018-04-22T19:51:03.861Z,20.63
2018-04-22T19:53:32.190Z,16.57
2018-04-22T19:56:00.475Z,15.00
2018-04-22T19:58:28.753Z,14.83
2018-04-22T20:00:57.040Z,15.27
2018-04-22T20:03:25.369Z,14.60
2018-04-22T20:05:54.025Z,14.20
2018-04-22T20:08:22.414Z,14.50
2018-04-22T20:10:51.151Z,13.63
2018-04-22T20:13:19.530Z,12.97
2018-04-22T20:15:48.049Z,13.00
2018-04-22T20:18:16.307Z,13.47
2018-04-22T20:20:44.585Z,13.53
2018-04-22T20:23:13.070Z,13.40
2018-04-22T20:25:41.355Z,11.93
2018-04-22T20:28:09.786Z,12.03
2018-04-22T20:30:38.201Z,12.03
2018-04-22T20:33:06.875Z,12.50
2018-04-22T20:35:35.313Z,11.63
2018-04-22T20:38:03.575Z,10.97
2018-04-22T20:40:32.617Z,10.63
2018-04-22T20:43:01.005Z,10.87
2018-04-22T20:45:29.365Z,10.40
2018-04-22T20:47:57.635Z,10.60
2018-04-22T20:50:25.937Z,9.90
2018-04-22T20:52:54.352Z,11.10
2018-04-22T20:55:22.619Z,9.23
2018-04-22T20:57:50.894Z,9.23
2018-04-22T21:00:19.397Z,9.53
2018-04-22T21:02:47.731Z,10.20
2018-04-22T21:05:16.113Z,9.47
2018-04-22T21:07:44.492Z,9.03
2018-04-22T21:10:12.815Z,8.80
2018-04-22T21:12:41.874Z,8.93
2018-04-22T21:15:10.243Z,8.30
2018-04-22T21:17:38.575Z,9.10
2018-04-22T21:20:07.609Z,9.50
2018-04-22T21:22:36.016Z,8.43
2018-04-22T21:25:04.324Z,8.77
2018-04-22T21:27:33.353Z,8.80
2018-04-22T21:30:01.702Z,8.57
2018-04-22T21:32:30.756Z,8.93
2018-04-22T21:34:59.025Z,8.57
2018-04-22T21:37:27.287Z,8.70
2018-04-22T21:39:55.868Z,8.50
2018-04-22T21:42:24.254Z,8.10
2018-04-22T21:44:52.770Z,7.73
2018-04-22T21:47:21.063Z,7.60
2018-04-22T21:49:49.335Z,8.00
2018-04-22T21:52:17.596Z,7.53
2018-04-22T21:54:45.871Z,8.00
2018-04-22T21:57:14.233Z,7.60
2018-04-22T21:59:42.526Z,7.47
2018-04-22T22:02:10.786Z,7.60
2018-04-22T22:04:39.316Z,7.30
2018-04-22T22:07:08.370Z,7.40
2018-04-22T22:09:36.675Z,6.87
2018-04-22T22:12:05.183Z,7.40
2018-04-22T22:14:34.414Z,7.40
2018-04-22T22:17:02.694Z,6.73
2018-04-22T22:19:30.950Z,7.43
2018-04-22T22:21:59.354Z,6.80
2018-04-22T22:24:27.646Z,6.80
2018-04-22T22:26:55.949Z,6.37
2018-04-22T22:29:24.990Z,6.70
2018-04-22T22:31:54.083Z,6.60
2018-04-22T22:34:22.381Z,7.10
2018-04-22T22:36:50.702Z,6.53
2018-04-22T22:39:20.183Z,6.57
2018-04-22T22:41:48.733Z,6.43
2018-04-22T22:44:17.052Z,6.50
2018-04-22T22:46:46.203Z,6.87
2018-04-22T22:49:14.529Z,6.70
2018-04-22T22:51:42.955Z,6.47
2018-04-22T22:54:11.576Z,6.23
2018-04-22T22:56:39.930Z,6.17
2018-04-22T22:59:08.195Z,6.50
2018-04-22T23:01:36.677Z,6.63
2018-04-22T23:04:05.059Z,6.23
2018-04-22T23:06:33.439Z,6.33
2018-04-22T23:09:01.859Z,5.73
2018-04-22T23:11:30.892Z,6.20
2018-04-22T23:13:59.208Z,6.33
2018-04-22T23:16:27.509Z,5.90
2018-04-22T23:18:55.969Z,5.73
2018-04-22T23:21:24.290Z,5.73
2018-04-22T23:23:53.321Z,6.53
2018-04-22T23:26:21.652Z,6.03
2018-04-22T23:28:50.688Z,5.87
2018-04-22T23:31:19.067Z,5.73
2018-04-22T23:33:47.550Z,6.10
2018-04-22T23:36:15.812Z,5.83
2018-04-22T23:38:44.250Z,5.53
2018-04-22T23:41:12.544Z,5.93
2018-04-22T23:43:40.918Z,6.23
2018-04-22T23:46:09.183Z,5.23
2018-04-22T23:48:37.445Z,5.87
2018-04-22T23:51:05.810Z,5.77
2018-04-22T23:53:34.451Z,5.30
2018-04-22T23:56:03.478Z,5.20
2018-04-22T23:58:31.875Z,4.80
